Ocean Pathfinder — WDG8613 — position and weather

sailwx.info

Track history (hours):
 
Tides and Currents Weather Stations Pressure Air Temp Water Temp Dewpoint Dewpoint Depression Visibility Wind Speed Wind Dir Waves Ship Positions

Ocean Pathfinder

Owner: Ocean Pathfinder Holding, LLC, Seattle, WA. More information available from US FCC via Universal Licensing System and Coast Guard Vessel Documentation Center.

Last reported at 2017-Nov-28 04:30 UTC. Time now 2017-Dec-13 15:04 UTC.
Position N 47°34' W 122°21'.
Warning: this ship's position is 15 days out of date.

Length 39 m; draft 6 m.

Type: Tow > 200 m length. MMSI: 367579350.

Date/timePositionNaut miles runAvg speedWind from/ knotsBaromVisibWave heightAir tempDewpointWater temp
2017-Nov-28 04:30N 47°34' W 122°21'0 0.0
2017-Nov-28 04:00N 47°34' W 122°21'0 0.0
2017-Nov-28 03:30N 47°34' W 122°21'1 2.7
2017-Nov-28 03:00N 47°36' W 122°22'510.8
2017-Nov-28 02:30N 47°31' W 122°25'714.7
2017-Nov-28 02:00N 47°24' W 122°21'713.3
2017-Nov-28 01:30N 47°18' W 122°27'1 1.9
2017-Nov-28 00:57N 47°18' W 122°26'0 0.7
2017-Nov-28 00:30N 47°17' W 122°26'2 3.3
2017-Nov-28 00:00N 47°19' W 122°28'5 9.2
2017-Nov-27 23:30N 47°22' W 122°24'4 8.0
2017-Nov-27 23:00N 47°26' W 122°24'5 9.8
2017-Nov-27 22:30N 47°31' W 122°26'5 9.8
2017-Nov-27 22:00N 47°36' W 122°28'5 9.6
2017-Nov-27 21:30N 47°40' W 122°29'5 9.9
2017-Nov-27 21:00N 47°45' W 122°27'510.5
2017-Nov-27 20:30N 47°50' W 122°29'5 9.7
2017-Nov-27 20:00N 47°55' W 122°30'510.3
2017-Nov-27 19:29N 47°59' W 122°36'1310.5
2017-Nov-27 18:14N 48°10' W 122°46'10 9.8
2017-Nov-27 17:15N 48°20' W 122°47'310.0
2017-Nov-27 16:59N 48°23' W 122°46'4 9.2
2017-Nov-27 16:30N 48°27' W 122°45'4 8.4
2017-Nov-27 16:00N 48°31' W 122°45'4 8.0
2017-Nov-27 15:30N 48°35' W 122°45'5 9.1
2017-Nov-27 15:00N 48°39' W 122°43'5 9.8
2017-Nov-27 14:30N 48°44' W 122°46'710.7
2017-Nov-27 13:53N 48°48' W 122°54'611.0
2017-Nov-27 13:22N 48°51' W 123°02'410.6
2017-Nov-27 12:57N 48°53' W 123°07'510.7
2017-Nov-27 12:30N 48°57' W 123°13'610.8
2017-Nov-27 11:59N 49°00' W 123°19'510.9
2017-Nov-27 11:30N 49°04' W 123°25'510.7
2017-Nov-27 11:00N 49°08' W 123°31'510.5
2017-Nov-27 10:30N 49°11' W 123°36'2210.4
2017-Nov-27 08:20N 49°26' W 124°03'13 9.2
2017-Nov-27 06:58N 49°32' W 124°19'4 8.2
2017-Nov-27 06:30N 49°35' W 124°24'510.2
2017-Nov-27 06:00N 49°38' W 124°30'510.1
2017-Nov-27 05:29N 49°41' W 124°37'510.2
2017-Nov-27 05:00N 49°44' W 124°43'510.3
2017-Nov-27 04:30N 49°47' W 124°49'510.2
2017-Nov-27 04:00N 49°50' W 124°55'510.3
2017-Nov-27 03:30N 49°53' W 125°02'510.4
2017-Nov-27 03:00N 49°57' W 125°08'5 9.8
2017-Nov-27 02:30N 50°01' W 125°13'510.0
2017-Nov-27 02:00N 50°05' W 125°16'5 9.1
2017-Nov-27 01:30N 50°08' W 125°21'4 7.3
2017-Nov-27 01:00N 50°12' W 125°22'2 3.3
2017-Nov-27 00:30N 50°14' W 125°23'2 3.5
2017-Nov-27 00:00N 50°15' W 125°23'2 3.4
2017-Nov-26 23:30N 50°17' W 125°24'2 3.2
2017-Nov-26 23:00N 50°18' W 125°25'1 2.8
2017-Nov-26 22:30N 50°20' W 125°25'2 3.1
2017-Nov-26 22:00N 50°20' W 125°27'2 3.7
2017-Nov-26 21:30N 50°21' W 125°30'2 2.9
2017-Nov-26 20:59N 50°22' W 125°32'2 3.0
2017-Nov-26 20:12N 50°22' W 125°36'1 3.1
2017-Nov-26 19:53N 50°22' W 125°37'1 3.0
2017-Nov-26 19:27N 50°22' W 125°39'23 6.8
2017-Nov-26 16:02N 50°29' W 126°15'2 8.6
2017-Nov-26 15:46N 50°29' W 126°18'3 8.8
2017-Nov-26 15:25N 50°30' W 126°23'4 8.9
2017-Nov-26 14:57N 50°30' W 126°29'5 8.9
2017-Nov-26 14:27N 50°31' W 126°36'4 8.3
2017-Nov-26 13:59N 50°32' W 126°41'4 8.4
2017-Nov-26 13:30N 50°36' W 126°44'4 7.2
2017-Nov-26 12:58N 50°38' W 126°49'4 9.2
2017-Nov-26 12:29N 50°42' W 126°54'4 8.6
2017-Nov-26 11:59N 50°44' W 126°59'4 8.0
2017-Nov-26 11:30N 50°47' W 127°04'3 7.0
2017-Nov-26 11:00N 50°48' W 127°09'4 7.1
2017-Nov-26 10:30N 50°50' W 127°14'3 6.7
2017-Nov-26 10:00N 50°52' W 127°18'3 6.8
2017-Nov-26 09:30N 50°54' W 127°23'4 7.7
2017-Nov-26 09:00N 50°56' W 127°27'4 8.7
2017-Nov-26 08:30N 50°59' W 127°33'4 8.0
2017-Nov-26 08:00N 51°02' W 127°37'4 8.2
2017-Nov-26 07:30N 51°05' W 127°42'4 8.6
2017-Nov-26 06:59N 51°07' W 127°48'5 8.7
2017-Nov-26 06:28N 51°11' W 127°51'16 9.7
2017-Nov-26 04:49N 51°27' W 127°51'163 8.3
2017-Nov-25 09:11N 53°50' W 130°01'2 8.9
2017-Nov-25 08:57N 53°52' W 130°03'4 9.0
2017-Nov-25 08:30N 53°55' W 130°08'4 8.5
2017-Nov-25 08:00N 53°58' W 130°13'4 8.9
2017-Nov-25 07:30N 54°02' W 130°15'5 9.4
2017-Nov-25 07:00N 54°06' W 130°20'4 7.1
2017-Nov-25 06:30N 54°08' W 130°24'5 9.1
2017-Nov-25 06:00N 54°12' W 130°28'4 8.8
2017-Nov-25 05:30N 54°16' W 130°32'4 8.3
2017-Nov-25 05:00N 54°20' W 130°35'5 8.5
2017-Nov-25 04:28N 54°24' W 130°38'  
Track history (hours):
 
Tides and Currents Weather Stations Pressure Air Temp Water Temp Dewpoint Dewpoint Depression Visibility Wind Speed Wind Dir Waves Ship Positions

Ocean Pathfinder

Owner: Ocean Pathfinder Holding, LLC, Seattle, WA. More information available from US FCC via Universal Licensing System and Coast Guard Vessel Documentation Center.

Last reported at 2017-Nov-28 04:30 UTC. Time now 2017-Dec-13 15:04 UTC.
Position N 47°34' W 122°21'.
Warning: this ship's position is 15 days out of date.

Length 39 m; draft 6 m.

Type: Tow > 200 m length. MMSI: 367579350.

Date/timePositionNaut miles runAvg speedWind from/ knotsBaromVisibWave heightAir tempDewpointWater temp
2017-Nov-28 04:30N 47°34' W 122°21'0 0.0
2017-Nov-28 04:00N 47°34' W 122°21'0 0.0
2017-Nov-28 03:30N 47°34' W 122°21'1 2.7
2017-Nov-28 03:00N 47°36' W 122°22'510.8
2017-Nov-28 02:30N 47°31' W 122°25'714.7
2017-Nov-28 02:00N 47°24' W 122°21'713.3
2017-Nov-28 01:30N 47°18' W 122°27'1 1.9
2017-Nov-28 00:57N 47°18' W 122°26'0 0.7
2017-Nov-28 00:30N 47°17' W 122°26'2 3.3
2017-Nov-28 00:00N 47°19' W 122°28'5 9.2
2017-Nov-27 23:30N 47°22' W 122°24'4 8.0
2017-Nov-27 23:00N 47°26' W 122°24'5 9.8
2017-Nov-27 22:30N 47°31' W 122°26'5 9.8
2017-Nov-27 22:00N 47°36' W 122°28'5 9.6
2017-Nov-27 21:30N 47°40' W 122°29'5 9.9
2017-Nov-27 21:00N 47°45' W 122°27'510.5
2017-Nov-27 20:30N 47°50' W 122°29'5 9.7
2017-Nov-27 20:00N 47°55' W 122°30'510.3
2017-Nov-27 19:29N 47°59' W 122°36'1310.5
2017-Nov-27 18:14N 48°10' W 122°46'10 9.8
2017-Nov-27 17:15N 48°20' W 122°47'310.0
2017-Nov-27 16:59N 48°23' W 122°46'4 9.2
2017-Nov-27 16:30N 48°27' W 122°45'4 8.4
2017-Nov-27 16:00N 48°31' W 122°45'4 8.0
2017-Nov-27 15:30N 48°35' W 122°45'5 9.1
2017-Nov-27 15:00N 48°39' W 122°43'5 9.8
2017-Nov-27 14:30N 48°44' W 122°46'710.7
2017-Nov-27 13:53N 48°48' W 122°54'611.0
2017-Nov-27 13:22N 48°51' W 123°02'410.6
2017-Nov-27 12:57N 48°53' W 123°07'510.7
2017-Nov-27 12:30N 48°57' W 123°13'610.8
2017-Nov-27 11:59N 49°00' W 123°19'510.9
2017-Nov-27 11:30N 49°04' W 123°25'510.7
2017-Nov-27 11:00N 49°08' W 123°31'510.5
2017-Nov-27 10:30N 49°11' W 123°36'2210.4
2017-Nov-27 08:20N 49°26' W 124°03'13 9.2
2017-Nov-27 06:58N 49°32' W 124°19'4 8.2
2017-Nov-27 06:30N 49°35' W 124°24'510.2
2017-Nov-27 06:00N 49°38' W 124°30'510.1
2017-Nov-27 05:29N 49°41' W 124°37'510.2
2017-Nov-27 05:00N 49°44' W 124°43'510.3
2017-Nov-27 04:30N 49°47' W 124°49'510.2
2017-Nov-27 04:00N 49°50' W 124°55'510.3
2017-Nov-27 03:30N 49°53' W 125°02'510.4
2017-Nov-27 03:00N 49°57' W 125°08'5 9.8
2017-Nov-27 02:30N 50°01' W 125°13'510.0
2017-Nov-27 02:00N 50°05' W 125°16'5 9.1
2017-Nov-27 01:30N 50°08' W 125°21'4 7.3
2017-Nov-27 01:00N 50°12' W 125°22'2 3.3
2017-Nov-27 00:30N 50°14' W 125°23'2 3.5
2017-Nov-27 00:00N 50°15' W 125°23'2 3.4
2017-Nov-26 23:30N 50°17' W 125°24'2 3.2
2017-Nov-26 23:00N 50°18' W 125°25'1 2.8
2017-Nov-26 22:30N 50°20' W 125°25'2 3.1
2017-Nov-26 22:00N 50°20' W 125°27'2 3.7
2017-Nov-26 21:30N 50°21' W 125°30'2 2.9
2017-Nov-26 20:59N 50°22' W 125°32'2 3.0
2017-Nov-26 20:12N 50°22' W 125°36'1 3.1
2017-Nov-26 19:53N 50°22' W 125°37'1 3.0
2017-Nov-26 19:27N 50°22' W 125°39'23 6.8
2017-Nov-26 16:02N 50°29' W 126°15'2 8.6
2017-Nov-26 15:46N 50°29' W 126°18'3 8.8
2017-Nov-26 15:25N 50°30' W 126°23'4 8.9
2017-Nov-26 14:57N 50°30' W 126°29'5 8.9
2017-Nov-26 14:27N 50°31' W 126°36'4 8.3
2017-Nov-26 13:59N 50°32' W 126°41'4 8.4
2017-Nov-26 13:30N 50°36' W 126°44'4 7.2
2017-Nov-26 12:58N 50°38' W 126°49'4 9.2
2017-Nov-26 12:29N 50°42' W 126°54'4 8.6
2017-Nov-26 11:59N 50°44' W 126°59'4 8.0
2017-Nov-26 11:30N 50°47' W 127°04'3 7.0
2017-Nov-26 11:00N 50°48' W 127°09'4 7.1
2017-Nov-26 10:30N 50°50' W 127°14'3 6.7
2017-Nov-26 10:00N 50°52' W 127°18'3 6.8
2017-Nov-26 09:30N 50°54' W 127°23'4 7.7
2017-Nov-26 09:00N 50°56' W 127°27'4 8.7
2017-Nov-26 08:30N 50°59' W 127°33'4 8.0
2017-Nov-26 08:00N 51°02' W 127°37'4 8.2
2017-Nov-26 07:30N 51°05' W 127°42'4 8.6
2017-Nov-26 06:59N 51°07' W 127°48'5 8.7
2017-Nov-26 06:28N 51°11' W 127°51'16 9.7
2017-Nov-26 04:49N 51°27' W 127°51'163 8.3
2017-Nov-25 09:11N 53°50' W 130°01'2 8.9
2017-Nov-25 08:57N 53°52' W 130°03'4 9.0
2017-Nov-25 08:30N 53°55' W 130°08'4 8.5
2017-Nov-25 08:00N 53°58' W 130°13'4 8.9
2017-Nov-25 07:30N 54°02' W 130°15'5 9.4
2017-Nov-25 07:00N 54°06' W 130°20'4 7.1
2017-Nov-25 06:30N 54°08' W 130°24'5 9.1
2017-Nov-25 06:00N 54°12' W 130°28'4 8.8
2017-Nov-25 05:30N 54°16' W 130°32'4 8.3
2017-Nov-25 05:00N 54°20' W 130°35'5 8.5
2017-Nov-25 04:28N 54°24' W 130°38'  

Dump ship's entire track history